Terminal Aerodrome Forecast
Issued by NWS

Home | Current Version | Previous Version | Text Only | Print | Product List | Glossary On
Versions: 1 2 3 4 5 6 7 8 9 10 11 12 13 14
000
FTUS43 KMQT 030520
TAFCMX
TAF
KCMX 030520Z 0306/0406 24006KT P6SM BKN070
     FM031100 26012KT P6SM -SHRA BKN070
     FM031400 27015G22KT P6SM BKN070
     FM032200 28011KT P6SM SCT070
     FM040100 34004KT P6SM SCT070=

USA.gov is the U.S. government's official web portal to all federal, state and local government web resources and services.